Time;durP1;ratioP1;P1;durP2;ratioP2;P2;SDS_P1;SDS_P2;PMS_P1;PMS_P2;Temp;Humidity;BMP_temperature;BMP_pressure;BME280_temperature;BME280_humidity;BME280_pressure;Samples;Min_cycle;Max_cycle;Signal;HPM_P1;HPM_P2
2021/05/29 00:00:42;;;;;;;6.63;5.23;;;11.30;3.40;;;;;;5118608;28;20456;-68
2021/05/29 00:03:09;;;;;;;6.80;5.50;;;11.30;3.20;;;;;;5117367;28;21001;-69
2021/05/29 00:05:35;;;;;;;5.27;4.77;;;11.30;9.30;;;;;;5118405;27;20789;-69
2021/05/29 00:08:02;;;;;;;6.53;4.30;;;11.30;9.20;;;;;;5118028;28;20463;-68
2021/05/29 00:10:28;;;;;;;6.43;4.37;;;11.20;6.40;;;;;;5118163;28;20453;-68
2021/05/29 00:12:54;;;;;;;4.80;4.00;;;11.20;9.60;;;;;;5118262;28;20776;-69
2021/05/29 00:15:21;;;;;;;7.30;4.93;;;11.20;13.60;;;;;;5117944;28;20468;-69
2021/05/29 00:17:47;;;;;;;7.10;6.00;;;11.20;19.50;;;;;;5118437;28;20452;-68
2021/05/29 00:20:14;;;;;;;7.03;4.77;;;11.10;22.90;;;;;;5118014;27;20939;-69
2021/05/29 00:22:40;;;;;;;6.17;5.23;;;11.10;27.40;;;;;;5117972;27;20483;-68
2021/05/29 00:25:08;;;;;;;5.60;4.87;;;11.00;27.70;;;;;;5117933;28;20461;-69
2021/05/29 00:27:34;;;;;;;4.90;4.40;;;11.00;30.20;;;;;;5118152;28;20452;-67
2021/05/29 00:30:00;;;;;;;6.03;4.77;;;10.90;33.50;;;;;;5117747;28;20453;-70
2021/05/29 00:32:26;;;;;;;6.90;5.23;;;10.90;42.20;;;;;;5117389;28;20472;-68
2021/05/29 00:34:53;;;;;;;8.30;5.23;;;10.90;45.80;;;;;;5117802;28;20562;-68
2021/05/29 00:37:20;;;;;;;6.43;4.80;;;10.80;49.60;;;;;;5117793;28;20457;-68
2021/05/29 00:39:46;;;;;;;6.80;5.60;;;10.80;60.50;;;;;;5117412;28;20543;-69
2021/05/29 00:42:13;;;;;;;6.83;5.07;;;10.80;74.80;;;;;;5117673;27;20866;-68
2021/05/29 00:44:50;;;;;;;6.33;5.20;;;10.80;84.40;;;;;;5117235;28;20920;-69
2021/05/29 00:47:19;;;;;;;6.53;4.63;;;10.70;87.20;;;;;;5117817;28;20436;-69
2021/05/29 00:49:45;;;;;;;6.67;5.20;;;10.70;86.00;;;;;;5118401;28;20448;-68
2021/05/29 00:52:14;;;;;;;7.13;5.20;;;10.70;90.90;;;;;;5117874;28;20463;-68
2021/05/29 00:54:42;;;;;;;5.53;4.63;;;10.60;93.00;;;;;;5117188;28;20935;-68
2021/05/29 00:57:11;;;;;;;5.83;5.33;;;10.60;94.30;;;;;;5117738;27;20909;-69
2021/05/29 00:59:37;;;;;;;7.17;5.10;;;10.60;97.90;;;;;;5117489;28;20845;-68
2021/05/29 01:02:07;;;;;;;6.80;5.00;;;10.60;98.50;;;;;;5116968;28;20510;-69
2021/05/29 01:04:33;;;;;;;6.37;5.03;;;10.50;99.90;;;;;;5117300;28;20524;-69
2021/05/29 01:07:01;;;;;;;9.50;5.53;;;10.50;99.90;;;;;;5117287;28;20487;-68
2021/05/29 01:09:27;;;;;;;5.77;4.70;;;10.40;99.90;;;;;;5117255;28;20456;-68
2021/05/29 01:11:54;;;;;;;7.30;5.73;;;10.40;99.90;;;;;;5117198;28;20761;-68
2021/05/29 01:14:21;;;;;;;7.07;5.90;;;10.40;99.90;;;;;;5117246;28;20537;-68
2021/05/29 01:16:54;;;;;;;5.93;4.80;;;10.40;99.90;;;;;;5116723;28;20929;-69
2021/05/29 01:19:21;;;;;;;11.50;5.30;;;10.40;99.90;;;;;;5116867;28;20505;-68
2021/05/29 01:21:47;;;;;;;7.53;5.63;;;10.40;99.90;;;;;;5116924;28;20463;-69
2021/05/29 01:24:14;;;;;;;6.80;5.60;;;10.30;99.90;;;;;;5116965;28;20869;-68
2021/05/29 01:26:40;;;;;;;8.27;5.27;;;10.30;99.90;;;;;;5116663;28;20452;-69
2021/05/29 01:29:07;;;;;;;9.00;5.17;;;10.30;99.90;;;;;;5116556;28;20939;-69
2021/05/29 01:31:36;;;;;;;6.53;5.90;;;10.30;99.90;;;;;;5116797;28;20488;-69
2021/05/29 01:34:03;;;;;;;6.20;5.60;;;10.30;99.90;;;;;;5116820;28;20455;-68
2021/05/29 01:36:30;;;;;;;8.57;5.70;;;10.30;99.90;;;;;;5116535;28;20456;-68
2021/05/29 01:38:57;;;;;;;8.53;5.57;;;10.30;99.90;;;;;;5116627;28;20570;-69
2021/05/29 01:41:25;;;;;;;9.73;6.23;;;10.30;99.90;;;;;;5116263;28;20943;-69
2021/05/29 01:43:52;;;;;;;10.10;7.17;;;10.20;99.90;;;;;;5116271;28;20487;-68
2021/05/29 01:46:20;;;;;;;6.73;5.97;;;10.20;99.90;;;;;;5116477;28;20464;-68
2021/05/29 01:48:49;;;;;;;10.10;5.77;;;10.20;99.90;;;;;;5116778;28;20457;-68
2021/05/29 01:51:18;;;;;;;10.10;6.93;;;10.20;99.90;;;;;;5116229;28;20456;-68
2021/05/29 01:53:45;;;;;;;9.10;6.30;;;10.10;99.90;;;;;;5116381;28;20817;-68
2021/05/29 01:56:12;;;;;;;13.77;6.10;;;10.10;99.90;;;;;;5116259;28;20456;-69
2021/05/29 01:58:39;;;;;;;13.73;6.40;;;10.10;99.90;;;;;;5116046;28;20463;-68
2021/05/29 02:01:07;;;;;;;9.70;6.40;;;10.00;99.90;;;;;;5116042;28;20460;-71
2021/05/29 02:03:34;;;;;;;9.07;5.67;;;10.00;99.90;;;;;;5115941;27;20484;-70
2021/05/29 02:06:00;;;;;;;7.90;6.00;;;10.00;99.90;;;;;;5115868;28;20456;-70
2021/05/29 02:08:26;;;;;;;7.50;6.50;;;9.90;99.90;;;;;;5116049;28;20460;-69
2021/05/29 02:10:52;;;;;;;8.13;5.87;;;9.90;99.90;;;;;;5116279;28;20456;-71
2021/05/29 02:13:24;;;;;;;7.40;6.10;;;9.80;99.90;;;;;;5116128;28;20459;-71
2021/05/29 02:15:53;;;;;;;11.23;6.17;;;9.80;99.90;;;;;;5116177;28;20464;-71
2021/05/29 02:18:19;;;;;;;11.30;6.27;;;9.70;99.90;;;;;;5116229;28;20452;-71
2021/05/29 02:20:50;;;;;;;7.47;6.30;;;9.70;99.90;;;;;;5116376;28;20468;-71
2021/05/29 02:23:19;;;;;;;8.30;6.77;;;9.70;99.90;;;;;;5116498;28;20539;-71
2021/05/29 02:25:45;;;;;;;11.83;6.73;;;9.70;99.90;;;;;;5115789;28;20492;-71
2021/05/29 02:28:12;;;;;;;9.50;6.20;;;9.60;99.90;;;;;;5116393;28;20456;-71
2021/05/29 02:30:39;;;;;;;8.40;6.13;;;9.60;99.90;;;;;;5116004;28;20468;-71
2021/05/29 02:33:07;;;;;;;8.67;6.80;;;9.60;99.90;;;;;;5116305;28;20472;-71
2021/05/29 02:35:35;;;;;;;12.10;6.73;;;9.60;99.90;;;;;;5116706;28;20448;-71
2021/05/29 02:38:01;;;;;;;12.73;7.50;;;9.60;99.90;;;;;;5116286;28;20452;-71
2021/05/29 02:40:28;;;;;;;14.03;7.03;;;9.60;99.90;;;;;;5115756;28;20505;-70
2021/05/29 02:42:54;;;;;;;10.80;6.93;;;9.70;99.90;;;;;;5115401;28;20558;-71
2021/05/29 02:45:20;;;;;;;9.20;6.83;;;9.70;99.90;;;;;;5115301;28;20830;-71
2021/05/29 02:47:47;;;;;;;8.37;6.70;;;9.60;99.90;;;;;;5115749;28;20453;-70
2021/05/29 02:50:17;;;;;;;9.90;7.40;;;9.60;99.90;;;;;;5115272;28;20797;-70
2021/05/29 02:52:44;;;;;;;10.10;6.60;;;9.70;99.90;;;;;;5115562;28;20444;-70
2021/05/29 02:55:13;;;;;;;14.83;8.00;;;9.70;99.90;;;;;;5115310;28;20487;-71
2021/05/29 02:57:39;;;;;;;12.33;7.13;;;9.70;99.90;;;;;;5115540;28;20907;-71
2021/05/29 03:00:08;;;;;;;14.80;7.63;;;9.70;99.90;;;;;;5115153;28;20456;-70
2021/05/29 03:02:34;;;;;;;14.67;8.67;;;9.70;99.90;;;;;;5114250;28;21009;-70
2021/05/29 03:05:03;;;;;;;9.40;7.83;;;9.70;99.90;;;;;;5115350;28;20456;-71
2021/05/29 03:07:31;;;;;;;13.93;8.20;;;9.70;99.90;;;;;;5115237;28;20456;-70
2021/05/29 03:09:57;;;;;;;15.90;8.80;;;9.70;99.90;;;;;;5115601;28;20456;-70
2021/05/29 03:12:24;;;;;;;13.67;8.60;;;9.70;99.90;;;;;;5114862;28;20449;-69
2021/05/29 03:14:50;;;;;;;13.33;8.70;;;9.70;99.90;;;;;;5115047;28;20456;-69
2021/05/29 03:17:16;;;;;;;16.20;9.10;;;9.70;99.90;;;;;;5115690;28;20471;-69
2021/05/29 03:19:42;;;;;;;19.17;9.80;;;9.80;99.90;;;;;;5115304;28;20521;-69
2021/05/29 03:22:08;;;;;;;14.67;10.30;;;9.80;99.90;;;;;;5115206;28;20456;-69
2021/05/29 03:24:35;;;;;;;14.23;10.80;;;9.70;99.90;;;;;;5114786;28;20448;-70
2021/05/29 03:27:02;;;;;;;14.37;11.40;;;9.70;99.90;;;;;;5114903;28;20459;-68
2021/05/29 03:29:28;;;;;;;16.13;11.97;;;9.70;99.90;;;;;;5115258;28;20456;-69
2021/05/29 03:31:54;;;;;;;12.77;10.33;;;9.70;99.90;;;;;;5114926;28;20480;-71
2021/05/29 03:34:21;;;;;;;13.70;9.50;;;9.70;99.90;;;;;;5115375;28;20452;-70
2021/05/29 03:36:47;;;;;;;14.20;9.20;;;9.70;99.90;;;;;;5114922;28;20456;-70
2021/05/29 03:39:13;;;;;;;13.30;9.40;;;9.70;99.90;;;;;;5116833;28;20463;-69
2021/05/29 03:41:40;;;;;;;12.20;9.53;;;9.70;99.90;;;;;;5118780;28;20456;-69
2021/05/29 03:44:06;;;;;;;11.17;8.40;;;9.70;99.90;;;;;;5118573;28;20480;-70
2021/05/29 03:46:32;;;;;;;11.50;8.03;;;9.80;99.90;;;;;;5118581;28;20844;-70
2021/05/29 03:48:59;;;;;;;12.77;8.40;;;9.80;99.90;;;;;;5118680;28;20456;-70
2021/05/29 03:51:27;;;;;;;14.60;8.20;;;9.80;99.90;;;;;;5118550;28;20459;-70
2021/05/29 03:53:53;;;;;;;12.67;8.57;;;9.90;99.90;;;;;;5118625;28;20459;-70
2021/05/29 03:56:19;;;;;;;13.10;9.03;;;9.80;99.90;;;;;;5118344;27;20938;-69
2021/05/29 03:58:46;;;;;;;11.27;7.77;;;9.90;99.90;;;;;;5118669;28;20993;-69
2021/05/29 04:01:13;;;;;;;12.87;9.67;;;9.90;99.90;;;;;;5118749;28;20460;-69
2021/05/29 04:03:39;;;;;;;16.13;8.77;;;9.90;99.90;;;;;;5118357;28;20824;-69
2021/05/29 04:06:05;;;;;;;10.33;8.23;;;9.90;99.90;;;;;;5118389;28;20448;-69
2021/05/29 04:08:31;;;;;;;11.40;8.20;;;9.90;99.90;;;;;;5118247;28;20461;-69
2021/05/29 04:10:58;;;;;;;12.93;9.87;;;9.90;99.90;;;;;;5118000;28;20959;-69
2021/05/29 04:13:24;;;;;;;15.13;8.97;;;10.00;99.90;;;;;;5118265;28;20449;-69
2021/05/29 04:15:51;;;;;;;16.30;8.50;;;10.00;99.90;;;;;;5118298;28;20513;-69
2021/05/29 04:18:17;;;;;;;13.30;8.90;;;9.90;99.90;;;;;;5118100;28;20795;-69
2021/05/29 04:20:43;;;;;;;13.43;8.33;;;10.00;99.90;;;;;;5117915;28;20452;-69
2021/05/29 04:23:10;;;;;;;15.67;8.83;;;10.00;99.90;;;;;;5118474;28;20480;-71
2021/05/29 04:25:36;;;;;;;14.40;8.97;;;10.00;99.90;;;;;;5117699;28;20464;-69
2021/05/29 04:28:02;;;;;;;17.77;9.80;;;10.00;99.90;;;;;;5118281;28;20452;-69
2021/05/29 04:30:30;;;;;;;12.50;9.47;;;10.10;99.90;;;;;;5117819;28;20456;-69
2021/05/29 04:32:58;;;;;;;18.90;10.13;;;10.10;99.90;;;;;;5117520;28;20476;-69
2021/05/29 04:35:24;;;;;;;14.43;9.03;;;10.10;99.90;;;;;;5117923;28;20467;-69
2021/05/29 04:37:51;;;;;;;16.93;8.60;;;10.00;99.90;;;;;;5117505;28;20944;-69
2021/05/29 04:40:20;;;;;;;15.73;10.07;;;10.10;99.90;;;;;;5117220;28;20460;-69
2021/05/29 04:42:46;;;;;;;17.93;9.27;;;10.20;99.90;;;;;;5117677;28;20496;-69
2021/05/29 04:45:13;;;;;;;16.80;9.97;;;10.30;99.90;;;;;;5117586;28;20463;-68
2021/05/29 04:47:40;;;;;;;16.83;9.80;;;10.30;99.90;;;;;;5117604;28;20768;-68
2021/05/29 04:50:09;;;;;;;10.53;8.87;;;10.30;99.90;;;;;;5117009;28;20463;-69
2021/05/29 04:52:36;;;;;;;9.87;8.30;;;10.30;99.90;;;;;;5117271;28;20452;-69
2021/05/29 04:55:03;;;;;;;13.30;8.70;;;10.30;99.90;;;;;;5117195;28;20940;-68
2021/05/29 04:57:30;;;;;;;13.90;8.50;;;10.30;99.90;;;;;;5116892;28;20981;-69
2021/05/29 04:59:56;;;;;;;15.43;9.30;;;10.30;99.90;;;;;;5117142;28;20456;-69
2021/05/29 05:02:22;;;;;;;13.63;9.77;;;10.30;99.90;;;;;;5117332;28;20784;-69
2021/05/29 05:04:48;;;;;;;13.87;10.00;;;10.30;99.90;;;;;;5117230;28;20452;-68
2021/05/29 05:07:16;;;;;;;11.70;8.40;;;10.20;99.90;;;;;;5117299;28;20912;-69
2021/05/29 05:09:42;;;;;;;12.63;9.83;;;10.20;99.90;;;;;;5117081;28;20452;-69
2021/05/29 05:12:09;;;;;;;12.33;9.20;;;10.20;99.90;;;;;;5117065;28;20457;-70
2021/05/29 05:14:35;;;;;;;11.93;8.77;;;10.10;99.90;;;;;;5117154;28;20453;-70
2021/05/29 05:17:02;;;;;;;13.63;8.83;;;10.10;99.90;;;;;;5116928;28;20792;-70
2021/05/29 05:19:28;;;;;;;11.37;8.73;;;10.10;99.90;;;;;;5116813;28;20505;-70
2021/05/29 05:21:54;;;;;;;10.87;8.73;;;10.10;99.90;;;;;;5116843;28;20829;-70
2021/05/29 05:24:21;;;;;;;10.73;7.70;;;10.10;99.90;;;;;;5116647;27;20487;-70
2021/05/29 05:26:47;;;;;;;10.53;8.47;;;10.10;99.90;;;;;;5116995;28;20452;-70
2021/05/29 05:29:14;;;;;;;11.90;8.43;;;10.20;99.90;;;;;;5116893;28;20521;-69
2021/05/29 05:31:42;;;;;;;12.03;9.53;;;10.20;99.90;;;;;;5116626;28;20870;-69
2021/05/29 05:34:10;;;;;;;10.70;8.13;;;10.30;99.90;;;;;;5116532;28;20456;-69
2021/05/29 05:36:36;;;;;;;10.20;8.63;;;10.30;99.90;;;;;;5116391;28;20954;-69
2021/05/29 05:39:04;;;;;;;11.23;9.23;;;10.30;99.90;;;;;;5116664;28;20456;-70
2021/05/29 05:41:32;;;;;;;15.87;9.87;;;10.30;99.90;;;;;;5116438;28;20461;-70
2021/05/29 05:43:58;;;;;;;13.17;9.13;;;10.30;99.90;;;;;;5116479;28;20472;-69
2021/05/29 05:46:24;;;;;;;14.40;9.53;;;10.30;99.90;;;;;;5116562;28;20456;-70
2021/05/29 05:48:50;;;;;;;12.93;9.80;;;10.40;99.90;;;;;;5116261;28;20453;-72
2021/05/29 05:51:17;;;;;;;12.27;9.50;;;10.40;99.90;;;;;;5116310;28;20452;-70
2021/05/29 05:53:43;;;;;;;13.60;9.10;;;10.50;99.90;;;;;;5116669;28;20463;-70
2021/05/29 05:56:09;;;;;;;14.77;10.07;;;10.50;99.90;;;;;;5116008;28;20467;-70
2021/05/29 05:58:38;;;;;;;13.80;9.60;;;10.60;99.90;;;;;;5116097;28;20460;-69
2021/05/29 06:01:06;;;;;;;15.53;9.40;;;10.70;99.90;;;;;;5115380;28;20452;-71
2021/05/29 06:03:33;;;;;;;13.77;9.10;;;10.70;99.90;;;;;;5115913;28;20480;-70
2021/05/29 06:05:59;;;;;;;17.73;10.40;;;10.80;99.90;;;;;;5115957;28;20456;-70
2021/05/29 06:08:25;;;;;;;12.03;9.77;;;10.90;99.90;;;;;;5116156;28;20947;-70
2021/05/29 06:10:52;;;;;;;14.03;9.10;;;10.80;99.90;;;;;;5115687;28;20467;-68
2021/05/29 06:13:32;;;;;;;16.40;10.00;;;10.80;99.90;;;;;;5116154;28;20753;-69
2021/05/29 06:21:28;;;;;;;15.40;9.87;;;11.10;99.90;;;;;;5115867;28;20432;-69
2021/05/29 06:23:54;;;;;;;12.73;9.63;;;11.20;99.90;;;;;;5116039;28;20808;-69
2021/05/29 06:26:21;;;;;;;13.53;9.63;;;11.20;99.90;;;;;;5115851;28;20460;-69
2021/05/29 06:28:47;;;;;;;18.90;10.20;;;11.20;99.90;;;;;;5115876;28;20483;-71
2021/05/29 06:31:14;;;;;;;13.83;9.90;;;11.30;99.90;;;;;;5115945;28;20521;-69
2021/05/29 06:33:40;;;;;;;13.50;9.70;;;11.30;99.90;;;;;;5115761;28;20452;-70
2021/05/29 06:36:08;;;;;;;16.70;10.00;;;11.30;99.90;;;;;;5115696;28;20447;-70
2021/05/29 06:38:34;;;;;;;20.80;10.00;;;11.30;99.90;;;;;;5116093;28;20908;-70
2021/05/29 06:41:00;;;;;;;17.20;9.10;;;11.40;99.90;;;;;;5115670;28;20520;-70
2021/05/29 06:43:27;;;;;;;16.93;10.27;;;11.60;99.90;;;;;;5115805;28;20487;-70
2021/05/29 06:45:53;;;;;;;18.07;11.40;;;11.70;98.90;;;;;;5115886;28;20453;-70
2021/05/29 06:48:21;;;;;;;16.10;11.53;;;11.70;93.10;;;;;;5116234;28;20513;-70
2021/05/29 06:50:51;;;;;;;17.53;11.97;;;11.80;83.80;;;;;;5116191;28;20453;-70
2021/05/29 06:53:22;;;;;;;14.20;9.60;;;11.90;62.20;;;;;;5116403;28;20457;-70
2021/05/29 06:58:48;;;;;;;13.73;9.03;;;12.10;66.70;;;;;;5080336;28;20433;-70
2021/05/29 07:01:14;;;;;;;15.97;10.17;;;12.20;13.70;;;;;;5115770;28;20751;-70
2021/05/29 07:03:41;;;;;;;14.57;10.50;;;12.20;1.00;;;;;;5116112;28;20475;-71
2021/05/29 07:06:08;;;;;;;14.27;9.50;;;12.30;1.00;;;;;;5115658;28;20460;-72
2021/05/29 07:08:34;;;;;;;16.53;10.70;;;12.40;1.00;;;;;;5115592;28;20452;-70
2021/05/29 07:11:00;;;;;;;19.70;10.23;;;12.60;1.00;;;;;;5115601;28;20468;-70
2021/05/29 07:13:27;;;;;;;13.83;9.50;;;12.70;1.00;;;;;;5118210;28;20509;-71
2021/05/29 07:15:53;;;;;;;15.60;10.50;;;12.80;1.00;;;;;;5119057;28;20452;-70
2021/05/29 07:18:22;;;;;;;16.70;10.30;;;12.90;1.00;;;;;;5119545;28;20456;-71
2021/05/29 07:20:49;;;;;;;12.50;9.10;;;13.00;1.00;;;;;;5119499;28;20456;-70
2021/05/29 07:23:15;;;;;;;13.10;10.17;;;13.10;1.00;;;;;;5119021;28;20972;-70
2021/05/29 07:25:42;;;;;;;13.73;10.27;;;13.20;1.00;;;;;;5119922;28;20460;-69
2021/05/29 07:28:09;;;;;;;12.10;9.73;;;13.40;1.00;;;;;;5118877;28;20456;-68
2021/05/29 07:30:35;;;;;;;15.77;9.43;;;13.50;1.00;;;;;;5119026;28;20467;-69
2021/05/29 07:33:02;;;;;;;13.13;8.83;;;13.60;99.90;;;;;;5118519;28;20479;-69
2021/05/29 07:35:28;;;;;;;12.30;8.70;;;13.50;99.90;;;;;;5119137;28;20460;-70
2021/05/29 07:37:56;;;;;;;10.33;7.97;;;13.40;99.90;;;;;;5119121;28;20467;-71
2021/05/29 07:40:22;;;;;;;14.43;8.30;;;13.40;99.90;;;;;;5118639;28;20467;-70
2021/05/29 07:42:48;;;;;;;9.47;7.43;;;13.40;99.90;;;;;;5119117;27;20452;-68
2021/05/29 07:45:15;;;;;;;11.40;7.03;;;13.50;99.90;;;;;;5119479;28;20460;-69
2021/05/29 07:47:42;;;;;;;10.43;7.03;;;13.50;16.80;;;;;;5118863;28;20456;-70
2021/05/29 07:50:10;;;;;;;8.17;6.80;;;13.70;99.90;;;;;;5118861;27;20465;-71
2021/05/29 07:52:36;;;;;;;7.40;6.57;;;13.90;1.00;;;;;;5119025;28;20467;-69
2021/05/29 07:55:04;;;;;;;7.80;6.23;;;14.10;1.00;;;;;;5118959;28;20461;-70
2021/05/29 07:57:31;;;;;;;8.23;6.03;;;14.30;58.60;;;;;;5118160;28;20913;-70
2021/05/29 07:59:57;;;;;;;8.37;7.20;;;14.50;1.00;;;;;;5118393;28;20452;-70
2021/05/29 08:02:24;;;;;;;9.50;6.77;;;14.60;1.00;;;;;;5118298;27;20475;-70
2021/05/29 08:04:50;;;;;;;10.13;5.67;;;14.80;99.90;;;;;;5118498;27;20504;-70
2021/05/29 08:07:17;;;;;;;7.10;6.03;;;14.80;99.90;;;;;;5118283;28;20822;-69
2021/05/29 08:09:43;;;;;;;12.93;5.73;;;14.90;1.00;;;;;;5118387;28;20456;-69
2021/05/29 08:12:11;;;;;;;8.53;6.20;;;14.90;99.90;;;;;;5118155;28;20456;-69
2021/05/29 08:14:37;;;;;;;7.60;5.93;;;14.80;99.90;;;;;;5118199;28;20463;-69
2021/05/29 08:17:06;;;;;;;7.87;6.30;;;14.90;1.00;;;;;;5118130;28;20475;-70
2021/05/29 08:19:32;;;;;;;6.60;5.90;;;15.00;1.00;;;;;;5117680;28;20463;-69
2021/05/29 08:21:59;;;;;;;8.43;5.67;;;15.00;99.90;;;;;;5118257;28;20792;-69
2021/05/29 08:24:26;;;;;;;8.17;5.70;;;15.10;99.90;;;;;;5117177;28;20479;-70
2021/05/29 08:26:52;;;;;;;13.90;5.40;;;15.20;99.90;;;;;;5117941;28;20461;-71
2021/05/29 08:29:19;;;;;;;9.20;5.30;;;15.40;99.90;;;;;;5117870;28;20456;-70
2021/05/29 08:31:46;;;;;;;6.30;4.90;;;15.30;1.00;;;;;;5117651;28;20863;-69
2021/05/29 08:34:13;;;;;;;8.90;5.10;;;15.20;99.90;;;;;;5117948;28;20835;-70
2021/05/29 08:36:40;;;;;;;5.23;4.60;;;15.20;1.00;;;;;;5117768;28;20478;-70
2021/05/29 08:39:08;;;;;;;6.43;4.83;;;15.20;1.00;;;;;;5117872;28;20464;-70
2021/05/29 08:41:35;;;;;;;8.73;5.67;;;15.30;1.00;;;;;;5117661;28;20460;-69
2021/05/29 08:44:01;;;;;;;7.13;5.63;;;15.30;1.00;;;;;;5117349;27;20485;-70
2021/05/29 08:46:29;;;;;;;8.60;5.00;;;15.40;1.00;;;;;;5117555;28;20467;-70
2021/05/29 08:48:55;;;;;;;10.63;6.47;;;15.40;1.00;;;;;;5118272;28;20486;-69
2021/05/29 08:51:22;;;;;;;7.43;6.20;;;15.40;1.00;;;;;;5117664;28;20753;-70
2021/05/29 08:53:55;;;;;;;6.57;4.97;;;15.40;1.00;;;;;;5116904;28;20457;-71
2021/05/29 08:56:22;;;;;;;5.73;5.13;;;15.40;1.00;;;;;;5117929;28;20429;-68
2021/05/29 08:58:49;;;;;;;7.97;5.43;;;15.50;99.90;;;;;;5118165;28;20480;-69
2021/05/29 09:01:16;;;;;;;5.37;4.70;;;15.50;99.90;;;;;;5118763;28;20471;-70
2021/05/29 09:03:47;;;;;;;9.83;5.50;;;15.50;99.90;;;;;;5118369;28;20811;-70
2021/05/29 09:06:15;;;;;;;8.40;4.57;;;15.50;99.90;;;;;;5117629;28;20449;-70
2021/05/29 09:08:52;;;;;;;6.03;5.40;;;15.50;99.90;;;;;;5117938;28;20472;-70
2021/05/29 09:11:48;;;;;;;5.33;4.80;;;15.40;99.90;;;;;;5117702;28;20531;-71
2021/05/29 09:14:36;;;;;;;5.53;4.80;;;15.40;99.90;;;;;;5119660;28;20451;-72
2021/05/29 09:17:18;;;;;;;7.97;5.53;;;15.40;99.90;;;;;;5121733;28;20433;-71
2021/05/29 09:19:54;;;;;;;8.43;5.00;;;15.40;99.90;;;;;;5122592;27;20880;-72
2021/05/29 09:22:23;;;;;;;8.13;5.20;;;15.50;99.90;;;;;;5121466;28;20539;-71
2021/05/29 09:25:11;;;;;;;9.77;4.83;;;15.60;99.90;;;;;;5122051;28;20508;-71
2021/05/29 09:27:39;;;;;;;5.00;4.07;;;15.80;51.30;;;;;;5122261;28;20440;-71
2021/05/29 09:30:08;;;;;;;9.20;4.40;;;16.00;1.00;;;;;;5122305;28;20486;-71
2021/05/29 09:32:36;;;;;;;5.90;4.67;;;16.10;1.00;;;;;;5124233;28;20484;-72
2021/05/29 09:35:08;;;;;;;8.37;4.50;;;16.10;1.00;;;;;;5122131;28;20444;-72
2021/05/29 09:37:35;;;;;;;5.43;4.70;;;16.00;1.00;;;;;;5122013;28;20437;-72
2021/05/29 09:40:06;;;;;;;8.13;4.70;;;16.00;1.00;;;;;;5123017;28;20471;-70
2021/05/29 09:42:35;;;;;;;6.13;4.80;;;16.20;1.00;;;;;;5123084;28;20437;-71
2021/05/29 09:45:20;;;;;;;5.90;5.30;;;16.40;1.00;;;;;;5123431;28;20480;-71
2021/05/29 09:48:17;;;;;;;5.80;4.00;;;16.50;1.00;;;;;;5122353;28;20532;-72
2021/05/29 09:51:04;;;;;;;7.10;4.43;;;16.40;1.00;;;;;;5122592;28;20455;-71
2021/05/29 09:53:33;;;;;;;7.33;4.90;;;16.50;99.90;;;;;;5121440;28;20432;-71
2021/05/29 09:55:59;;;;;;;8.57;5.60;;;16.40;1.00;;;;;;5120185;28;20459;-71
2021/05/29 09:58:50;;;;;;;7.83;5.43;;;16.50;1.00;;;;;;5121810;28;20469;-71
2021/05/29 10:01:40;;;;;;;6.77;5.40;;;16.60;1.00;;;;;;5120788;28;20769;-71
2021/05/29 10:04:08;;;;;;;6.00;4.40;;;16.50;1.00;;;;;;5122334;28;20510;-70
2021/05/29 10:06:35;;;;;;;7.90;5.13;;;16.40;1.00;;;;;;5123314;28;20728;-70
2021/05/29 10:09:04;;;;;;;4.30;3.90;;;16.40;1.00;;;;;;5121496;28;20460;-71
2021/05/29 10:11:31;;;;;;;8.90;4.73;;;16.50;1.00;;;;;;5122421;28;20812;-71
2021/05/29 10:13:57;;;;;;;5.67;4.67;;;16.50;99.90;;;;;;5122211;28;20471;-71
2021/05/29 10:16:24;;;;;;;5.67;4.20;;;16.50;99.90;;;;;;5121753;28;20489;-71
2021/05/29 10:18:53;;;;;;;9.83;5.77;;;16.50;1.00;;;;;;5120721;28;20452;-70
2021/05/29 10:21:20;;;;;;;6.50;5.00;;;16.40;1.00;;;;;;5123129;28;20864;-71
2021/05/29 10:23:49;;;;;;;9.77;6.20;;;16.20;1.00;;;;;;5122599;28;20483;-71
2021/05/29 10:26:16;;;;;;;5.80;4.97;;;16.10;1.00;;;;;;5121035;28;20524;-71
2021/05/29 10:28:44;;;;;;;6.00;5.00;;;16.00;1.00;;;;;;5121683;28;20543;-70
2021/05/29 10:31:11;;;;;;;5.27;4.73;;;16.00;1.00;;;;;;5122731;28;20529;-71
2021/05/29 10:33:42;;;;;;;7.20;5.50;;;16.00;1.00;;;;;;5122139;28;20448;-70
2021/05/29 10:36:08;;;;;;;9.37;5.53;;;16.00;1.00;;;;;;5122462;28;20452;-72
2021/05/29 10:38:45;;;;;;;9.37;6.00;;;16.20;1.00;;;;;;5122189;28;20783;-70
2021/05/29 10:41:12;;;;;;;7.47;6.50;;;16.30;1.00;;;;;;5121472;28;20452;-72
2021/05/29 10:43:38;;;;;;;10.83;6.57;;;16.10;1.00;;;;;;5122053;28;20524;-72
2021/05/29 10:46:10;;;;;;;6.73;5.60;;;16.00;1.00;;;;;;5123881;28;20452;-72
2021/05/29 10:48:47;;;;;;;6.73;5.37;;;16.00;1.00;;;;;;5125537;28;20448;-72
2021/05/29 10:51:14;;;;;;;7.03;5.93;;;16.00;1.00;;;;;;5127378;28;20546;-72
2021/05/29 10:53:43;;;;;;;8.53;5.77;;;16.00;1.00;;;;;;5127502;28;20459;-71
2021/05/29 10:56:30;;;;;;;10.20;6.63;;;16.00;1.00;;;;;;5128318;28;20932;-71
2021/05/29 10:59:02;;;;;;;7.33;5.73;;;16.00;1.00;;;;;;5128334;28;20677;-71
2021/05/29 11:02:05;;;;;;;6.37;5.77;;;16.10;1.00;;;;;;5127184;28;20440;-71
2021/05/29 11:04:33;;;;;;;7.07;5.93;;;16.10;1.00;;;;;;5127519;28;20464;-71
2021/05/29 11:07:01;;;;;;;8.10;6.00;;;16.10;1.00;;;;;;5128053;28;20456;-71
2021/05/29 11:09:52;;;;;;;7.73;6.07;;;16.10;1.00;;;;;;5128127;28;20452;-71
2021/05/29 11:12:19;;;;;;;7.47;6.00;;;16.20;1.00;;;;;;5124205;28;20622;-71
2021/05/29 11:14:51;;;;;;;9.63;5.87;;;16.40;1.00;;;;;;5127698;28;20449;-71
2021/05/29 11:17:19;;;;;;;8.13;5.90;;;16.60;1.00;;;;;;5127788;28;20577;-71
2021/05/29 11:20:08;;;;;;;7.60;5.90;;;16.70;1.00;;;;;;5127531;28;20504;-71
2021/05/29 11:22:48;;;;;;;7.30;5.50;;;17.00;1.00;;;;;;5126965;28;20432;-71
2021/05/29 11:25:16;;;;;;;7.27;5.80;;;17.40;99.90;;;;;;5127493;27;20524;-71
2021/05/29 11:27:45;;;;;;;9.00;6.23;;;17.80;99.90;;;;;;5126236;28;20475;-71
2021/05/29 11:30:13;;;;;;;10.43;6.00;;;18.20;99.90;;;;;;5126902;28;20778;-71
2021/05/29 11:32:46;;;;;;;7.10;6.30;;;18.20;99.90;;;;;;5126176;28;20476;-71
2021/05/29 11:35:34;;;;;;;7.17;5.20;;;18.40;99.90;;;;;;5125674;27;20448;-71
2021/05/29 11:38:12;;;;;;;5.73;5.10;;;19.20;99.90;;;;;;5121480;28;20480;-71
2021/05/29 11:40:49;;;;;;;8.27;6.53;;;19.80;99.90;;;;;;5126233;28;20519;-71
2021/05/29 11:43:18;;;;;;;7.20;5.60;;;20.20;94.10;;;;;;5125000;28;20467;-70
2021/05/29 11:45:45;;;;;;;6.60;5.70;;;20.00;72.70;;;;;;5127142;28;20463;-71
2021/05/29 11:48:11;;;;;;;6.40;5.63;;;20.00;64.10;;;;;;5125824;28;20542;-71
2021/05/29 11:50:40;;;;;;;8.77;5.77;;;20.20;37.40;;;;;;5124765;28;20456;-71
2021/05/29 11:53:10;;;;;;;7.97;5.53;;;20.50;24.70;;;;;;5123734;28;20453;-71
2021/05/29 11:55:50;;;;;;;6.70;5.60;;;20.80;9.40;;;;;;5124433;28;20524;-71
2021/05/29 11:58:17;;;;;;;9.10;6.43;;;20.50;5.20;;;;;;5123727;28;20448;-71
2021/05/29 12:00:57;;;;;;;5.67;5.07;;;20.90;1.00;;;;;;5121937;28;20456;-71
2021/05/29 12:03:39;;;;;;;9.17;5.67;;;21.10;1.00;;;;;;5124693;28;20491;-70
2021/05/29 12:06:05;;;;;;;7.60;5.67;;;21.50;1.00;;;;;;5124183;28;20441;-71
2021/05/29 12:08:32;;;;;;;6.60;5.87;;;21.90;1.00;;;;;;5123071;27;20965;-71
2021/05/29 12:10:58;;;;;;;6.63;5.93;;;21.00;1.00;;;;;;5123178;28;20543;-71
2021/05/29 12:13:27;;;;;;;7.20;6.07;;;20.20;1.00;;;;;;5122370;28;20509;-71
2021/05/29 12:15:56;;;;;;;9.40;6.00;;;19.50;1.00;;;;;;5122273;28;20452;-71
2021/05/29 12:18:23;;;;;;;8.30;5.93;;;19.40;1.00;;;;;;5120987;28;20472;-70
2021/05/29 12:20:57;;;;;;;5.83;5.33;;;19.60;1.00;;;;;;5120937;28;20456;-71
2021/05/29 12:23:24;;;;;;;6.27;4.87;;;20.00;1.00;;;;;;5120284;28;20483;-71
2021/05/29 12:25:51;;;;;;;7.27;6.10;;;20.90;1.00;;;;;;5119310;28;20465;-70
2021/05/29 12:28:17;;;;;;;6.13;5.33;;;21.70;1.00;;;;;;5119865;28;20453;-70
2021/05/29 12:30:48;;;;;;;7.57;5.27;;;22.10;1.00;;;;;;5119259;28;20781;-70
2021/05/29 12:33:22;;;;;;;4.80;4.40;;;22.40;1.00;;;;;;5119596;28;20579;-70
2021/05/29 12:35:48;;;;;;;8.00;4.70;;;22.70;1.00;;;;;;5119266;28;20492;-70
2021/05/29 12:38:16;;;;;;;6.30;4.90;;;23.00;1.00;;;;;;5119646;28;20463;-69
2021/05/29 12:40:57;;;;;;;5.73;5.13;;;23.10;1.00;;;;;;5119501;28;20559;-71
2021/05/29 12:43:24;;;;;;;8.17;5.53;;;22.50;1.00;;;;;;5121030;28;20504;-70
2021/05/29 12:45:51;;;;;;;6.27;5.67;;;22.00;1.00;;;;;;5123056;28;20535;-71
2021/05/29 12:48:18;;;;;;;10.17;5.10;;;21.00;1.00;;;;;;5121558;28;20987;-72
2021/05/29 12:51:00;;;;;;;5.87;5.10;;;20.30;1.00;;;;;;5121413;28;20543;-71
2021/05/29 12:53:27;;;;;;;7.97;6.20;;;19.80;1.00;;;;;;5122029;28;20889;-71
2021/05/29 12:56:15;;;;;;;7.37;5.47;;;19.50;1.00;;;;;;5120852;28;20460;-71
2021/05/29 12:58:57;;;;;;;5.83;5.27;;;19.10;1.00;;;;;;5121726;28;20873;-71
2021/05/29 13:01:38;;;;;;;6.90;5.20;;;18.70;1.00;;;;;;5120358;28;20436;-71